sensor_id;sensor_type;location;lat;lon;timestamp;P1;durP1;ratioP1;P2;durP2;ratioP2
37787;SDS011;23627;53.302;-6.362;2023-03-23T01:22:08;5.88;;;1.15;;
37787;SDS011;23627;53.302;-6.362;2023-03-23T01:24:40;7.72;;;1.40;;
37787;SDS011;23627;53.302;-6.362;2023-03-23T01:27:07;8.93;;;1.73;;
37787;SDS011;23627;53.302;-6.362;2023-03-23T01:29:33;6.53;;;1.23;;
37787;SDS011;23627;53.302;-6.362;2023-03-23T01:32:00;7.20;;;1.55;;
37787;SDS011;23627;53.302;-6.362;2023-03-23T01:34:28;4.10;;;0.93;;
37787;SDS011;23627;53.302;-6.362;2023-03-23T01:37:03;5.50;;;1.00;;
37787;SDS011;23627;53.302;-6.362;2023-03-23T01:39:28;4.55;;;0.95;;
37787;SDS011;23627;53.302;-6.362;2023-03-23T01:41:54;5.10;;;0.65;;
37787;SDS011;23627;53.302;-6.362;2023-03-23T01:46:46;2.85;;;0.63;;
37787;SDS011;23627;53.302;-6.362;2023-03-23T01:49:16;3.03;;;0.80;;
37787;SDS011;23627;53.302;-6.362;2023-03-23T01:51:57;3.43;;;0.70;;
37787;SDS011;23627;53.302;-6.362;2023-03-23T01:57:06;2.53;;;0.63;;
37787;SDS011;23627;53.302;-6.362;2023-03-23T01:59:36;4.63;;;0.70;;
37787;SDS011;23627;53.302;-6.362;2023-03-23T02:02:02;4.82;;;0.80;;
37787;SDS011;23627;53.302;-6.362;2023-03-23T02:04:39;4.25;;;0.80;;
37787;SDS011;23627;53.302;-6.362;2023-03-23T02:07:18;3.45;;;0.90;;
37787;SDS011;23627;53.302;-6.362;2023-03-23T02:10:04;3.95;;;1.02;;
37787;SDS011;23627;53.302;-6.362;2023-03-23T02:12:34;4.65;;;1.00;;
37787;SDS011;23627;53.302;-6.362;2023-03-23T02:25:58;4.15;;;1.10;;
37787;SDS011;23627;53.302;-6.362;2023-03-23T02:52:53;3.88;;;1.15;;
37787;SDS011;23627;53.302;-6.362;2023-03-23T03:11:19;5.70;;;1.45;;
37787;SDS011;23627;53.302;-6.362;2023-03-23T03:14:10;7.15;;;1.23;;
37787;SDS011;23627;53.302;-6.362;2023-03-23T03:19:32;5.25;;;1.20;;
37787;SDS011;23627;53.302;-6.362;2023-03-23T03:22:03;9.32;;;1.13;;
37787;SDS011;23627;53.302;-6.362;2023-03-23T03:24:30;7.40;;;1.25;;
37787;SDS011;23627;53.302;-6.362;2023-03-23T03:26:58;3.90;;;0.90;;
37787;SDS011;23627;53.302;-6.362;2023-03-23T03:29:30;5.55;;;1.23;;
37787;SDS011;23627;53.302;-6.362;2023-03-23T03:31:59;6.32;;;1.40;;
37787;SDS011;23627;53.302;-6.362;2023-03-23T03:34:30;2.83;;;0.77;;
37787;SDS011;23627;53.302;-6.362;2023-03-23T03:36:57;4.65;;;1.00;;
37787;SDS011;23627;53.302;-6.362;2023-03-23T03:39:24;4.90;;;0.90;;
37787;SDS011;23627;53.302;-6.362;2023-03-23T03:41:58;3.78;;;0.80;;
37787;SDS011;23627;53.302;-6.362;2023-03-23T03:44:25;5.25;;;0.80;;
37787;SDS011;23627;53.302;-6.362;2023-03-23T03:46:51;5.97;;;0.90;;
37787;SDS011;23627;53.302;-6.362;2023-03-23T03:49:20;4.82;;;0.80;;
37787;SDS011;23627;53.302;-6.362;2023-03-23T03:51:50;5.38;;;0.70;;
37787;SDS011;23627;53.302;-6.362;2023-03-23T03:54:19;2.47;;;0.75;;
37787;SDS011;23627;53.302;-6.362;2023-03-23T03:57:08;2.80;;;0.57;;
37787;SDS011;23627;53.302;-6.362;2023-03-23T03:59:42;5.30;;;0.90;;
37787;SDS011;23627;53.302;-6.362;2023-03-23T04:02:09;3.83;;;0.70;;
37787;SDS011;23627;53.302;-6.362;2023-03-23T04:04:38;2.85;;;0.70;;
37787;SDS011;23627;53.302;-6.362;2023-03-23T04:07:05;3.70;;;0.65;;
37787;SDS011;23627;53.302;-6.362;2023-03-23T04:09:31;3.40;;;0.75;;
37787;SDS011;23627;53.302;-6.362;2023-03-23T04:11:57;4.50;;;0.60;;
37787;SDS011;23627;53.302;-6.362;2023-03-23T04:14:23;3.08;;;0.75;;
37787;SDS011;23627;53.302;-6.362;2023-03-23T04:16:49;3.22;;;0.60;;
37787;SDS011;23627;53.302;-6.362;2023-03-23T04:19:21;3.47;;;0.60;;
37787;SDS011;23627;53.302;-6.362;2023-03-23T04:21:48;3.75;;;0.50;;
37787;SDS011;23627;53.302;-6.362;2023-03-23T04:24:17;4.22;;;0.70;;
37787;SDS011;23627;53.302;-6.362;2023-03-23T04:26:46;6.05;;;0.80;;
37787;SDS011;23627;53.302;-6.362;2023-03-23T04:29:17;5.43;;;0.90;;
37787;SDS011;23627;53.302;-6.362;2023-03-23T04:31:44;2.97;;;0.50;;
37787;SDS011;23627;53.302;-6.362;2023-03-23T04:34:10;3.83;;;0.77;;
37787;SDS011;23627;53.302;-6.362;2023-03-23T04:36:38;5.18;;;0.70;;
37787;SDS011;23627;53.302;-6.362;2023-03-23T04:39:06;4.68;;;0.68;;
37787;SDS011;23627;53.302;-6.362;2023-03-23T04:41:36;5.90;;;1.35;;
37787;SDS011;23627;53.302;-6.362;2023-03-23T04:44:05;4.28;;;0.82;;
37787;SDS011;23627;53.302;-6.362;2023-03-23T04:46:32;5.85;;;0.68;;
37787;SDS011;23627;53.302;-6.362;2023-03-23T04:48:58;4.57;;;0.80;;
37787;SDS011;23627;53.302;-6.362;2023-03-23T04:51:26;4.55;;;0.90;;
37787;SDS011;23627;53.302;-6.362;2023-03-23T04:53:56;5.13;;;0.82;;
37787;SDS011;23627;53.302;-6.362;2023-03-23T04:56:25;3.65;;;0.60;;
37787;SDS011;23627;53.302;-6.362;2023-03-23T04:58:51;3.63;;;0.70;;
37787;SDS011;23627;53.302;-6.362;2023-03-23T05:01:16;4.80;;;0.75;;
37787;SDS011;23627;53.302;-6.362;2023-03-23T05:03:43;5.80;;;0.60;;
37787;SDS011;23627;53.302;-6.362;2023-03-23T05:06:09;5.63;;;1.02;;
37787;SDS011;23627;53.302;-6.362;2023-03-23T05:08:35;4.95;;;0.90;;
37787;SDS011;23627;53.302;-6.362;2023-03-23T05:11:05;3.67;;;1.08;;
37787;SDS011;23627;53.302;-6.362;2023-03-23T05:13:33;4.35;;;0.90;;
37787;SDS011;23627;53.302;-6.362;2023-03-23T05:16:02;5.57;;;0.93;;
37787;SDS011;23627;53.302;-6.362;2023-03-23T05:18:29;4.50;;;0.80;;
37787;SDS011;23627;53.302;-6.362;2023-03-23T05:20:59;5.93;;;0.90;;
37787;SDS011;23627;53.302;-6.362;2023-03-23T05:23:25;4.47;;;0.60;;
37787;SDS011;23627;53.302;-6.362;2023-03-23T05:25:55;4.20;;;0.60;;
37787;SDS011;23627;53.302;-6.362;2023-03-23T05:28:22;3.72;;;0.75;;
37787;SDS011;23627;53.302;-6.362;2023-03-23T05:30:48;4.32;;;0.60;;
37787;SDS011;23627;53.302;-6.362;2023-03-23T05:33:14;3.50;;;0.68;;
37787;SDS011;23627;53.302;-6.362;2023-03-23T05:35:40;3.97;;;0.70;;
37787;SDS011;23627;53.302;-6.362;2023-03-23T05:38:06;3.60;;;0.80;;
37787;SDS011;23627;53.302;-6.362;2023-03-23T05:40:32;6.03;;;0.82;;
37787;SDS011;23627;53.302;-6.362;2023-03-23T05:42:58;4.15;;;0.57;;
37787;SDS011;23627;53.302;-6.362;2023-03-23T05:45:25;2.80;;;0.85;;
37787;SDS011;23627;53.302;-6.362;2023-03-23T05:47:51;4.22;;;0.90;;
37787;SDS011;23627;53.302;-6.362;2023-03-23T05:50:21;3.08;;;0.60;;
37787;SDS011;23627;53.302;-6.362;2023-03-23T05:52:47;4.10;;;0.65;;
37787;SDS011;23627;53.302;-6.362;2023-03-23T05:55:13;3.22;;;0.77;;
37787;SDS011;23627;53.302;-6.362;2023-03-23T05:57:40;3.65;;;0.70;;
37787;SDS011;23627;53.302;-6.362;2023-03-23T06:00:06;5.15;;;0.60;;
37787;SDS011;23627;53.302;-6.362;2023-03-23T06:02:36;3.85;;;0.82;;
37787;SDS011;23627;53.302;-6.362;2023-03-23T06:05:02;1.98;;;0.50;;
37787;SDS011;23627;53.302;-6.362;2023-03-23T06:07:29;2.67;;;0.55;;
37787;SDS011;23627;53.302;-6.362;2023-03-23T06:09:55;4.25;;;0.52;;
37787;SDS011;23627;53.302;-6.362;2023-03-23T06:12:21;2.10;;;0.50;;
37787;SDS011;23627;53.302;-6.362;2023-03-23T06:14:47;2.83;;;0.63;;
37787;SDS011;23627;53.302;-6.362;2023-03-23T06:17:14;2.65;;;0.55;;
37787;SDS011;23627;53.302;-6.362;2023-03-23T06:19:42;3.90;;;0.60;;
37787;SDS011;23627;53.302;-6.362;2023-03-23T06:22:09;4.32;;;0.77;;
37787;SDS011;23627;53.302;-6.362;2023-03-23T06:24:35;3.75;;;0.60;;
37787;SDS011;23627;53.302;-6.362;2023-03-23T06:27:04;4.25;;;0.80;;
37787;SDS011;23627;53.302;-6.362;2023-03-23T06:29:30;5.10;;;0.52;;
37787;SDS011;23627;53.302;-6.362;2023-03-23T06:31:57;3.47;;;0.70;;
37787;SDS011;23627;53.302;-6.362;2023-03-23T06:34:25;4.22;;;0.65;;
37787;SDS011;23627;53.302;-6.362;2023-03-23T06:36:51;4.22;;;0.73;;
37787;SDS011;23627;53.302;-6.362;2023-03-23T06:39:18;2.78;;;0.55;;
37787;SDS011;23627;53.302;-6.362;2023-03-23T06:41:44;7.25;;;0.80;;
37787;SDS011;23627;53.302;-6.362;2023-03-23T06:44:10;5.75;;;0.73;;
37787;SDS011;23627;53.302;-6.362;2023-03-23T06:46:38;4.10;;;0.73;;
37787;SDS011;23627;53.302;-6.362;2023-03-23T06:49:05;4.05;;;0.82;;
37787;SDS011;23627;53.302;-6.362;2023-03-23T06:51:30;4.68;;;0.88;;
37787;SDS011;23627;53.302;-6.362;2023-03-23T06:53:59;3.10;;;0.90;;
37787;SDS011;23627;53.302;-6.362;2023-03-23T06:56:25;5.50;;;1.13;;
37787;SDS011;23627;53.302;-6.362;2023-03-23T06:58:51;6.15;;;1.45;;
37787;SDS011;23627;53.302;-6.362;2023-03-23T07:01:17;3.85;;;0.93;;
37787;SDS011;23627;53.302;-6.362;2023-03-23T07:03:44;5.20;;;1.02;;
37787;SDS011;23627;53.302;-6.362;2023-03-23T07:06:11;4.82;;;1.02;;
37787;SDS011;23627;53.302;-6.362;2023-03-23T07:08:37;5.10;;;1.00;;
37787;SDS011;23627;53.302;-6.362;2023-03-23T07:11:03;4.32;;;0.85;;
37787;SDS011;23627;53.302;-6.362;2023-03-23T07:13:30;6.20;;;1.00;;
37787;SDS011;23627;53.302;-6.362;2023-03-23T07:15:59;4.57;;;1.38;;
37787;SDS011;23627;53.302;-6.362;2023-03-23T07:18:25;5.10;;;1.00;;
37787;SDS011;23627;53.302;-6.362;2023-03-23T07:20:52;5.10;;;1.00;;
37787;SDS011;23627;53.302;-6.362;2023-03-23T07:23:18;7.72;;;1.20;;
37787;SDS011;23627;53.302;-6.362;2023-03-23T07:25:45;6.53;;;1.20;;
37787;SDS011;23627;53.302;-6.362;2023-03-23T07:28:13;7.30;;;1.10;;
37787;SDS011;23627;53.302;-6.362;2023-03-23T07:30:40;6.22;;;0.93;;
37787;SDS011;23627;53.302;-6.362;2023-03-23T07:33:06;6.00;;;1.08;;
37787;SDS011;23627;53.302;-6.362;2023-03-23T07:35:33;7.22;;;1.20;;
37787;SDS011;23627;53.302;-6.362;2023-03-23T07:38:00;6.05;;;0.98;;
37787;SDS011;23627;53.302;-6.362;2023-03-23T07:40:27;9.15;;;1.35;;
37787;SDS011;23627;53.302;-6.362;2023-03-23T07:42:55;8.13;;;1.10;;
37787;SDS011;23627;53.302;-6.362;2023-03-23T07:45:22;5.45;;;0.90;;
37787;SDS011;23627;53.302;-6.362;2023-03-23T07:47:48;8.63;;;1.27;;
37787;SDS011;23627;53.302;-6.362;2023-03-23T07:50:15;6.10;;;1.10;;
37787;SDS011;23627;53.302;-6.362;2023-03-23T07:52:42;4.45;;;1.10;;
37787;SDS011;23627;53.302;-6.362;2023-03-23T07:55:09;6.43;;;1.55;;
37787;SDS011;23627;53.302;-6.362;2023-03-23T07:57:42;6.10;;;1.10;;
37787;SDS011;23627;53.302;-6.362;2023-03-23T08:00:09;7.45;;;1.10;;
37787;SDS011;23627;53.302;-6.362;2023-03-23T08:02:45;5.65;;;1.00;;
37787;SDS011;23627;53.302;-6.362;2023-03-23T08:05:15;5.22;;;1.40;;
37787;SDS011;23627;53.302;-6.362;2023-03-23T08:07:42;8.82;;;1.33;;
37787;SDS011;23627;53.302;-6.362;2023-03-23T08:10:10;6.32;;;1.05;;
37787;SDS011;23627;53.302;-6.362;2023-03-23T08:12:38;6.95;;;1.15;;
37787;SDS011;23627;53.302;-6.362;2023-03-23T08:15:06;6.28;;;1.17;;
37787;SDS011;23627;53.302;-6.362;2023-03-23T08:17:33;6.78;;;1.15;;
37787;SDS011;23627;53.302;-6.362;2023-03-23T08:20:00;6.93;;;1.20;;
37787;SDS011;23627;53.302;-6.362;2023-03-23T08:22:26;5.18;;;1.00;;
37787;SDS011;23627;53.302;-6.362;2023-03-23T08:24:54;4.95;;;1.00;;
37787;SDS011;23627;53.302;-6.362;2023-03-23T08:27:20;6.00;;;1.30;;
37787;SDS011;23627;53.302;-6.362;2023-03-23T08:29:46;6.05;;;0.98;;
37787;SDS011;23627;53.302;-6.362;2023-03-23T08:32:31;5.78;;;1.20;;
37787;SDS011;23627;53.302;-6.362;2023-03-23T08:49:36;4.93;;;0.73;;
37787;SDS011;23627;53.302;-6.362;2023-03-23T08:52:06;6.13;;;0.90;;
37787;SDS011;23627;53.302;-6.362;2023-03-23T08:55:09;5.43;;;1.00;;
37787;SDS011;23627;53.302;-6.362;2023-03-23T08:57:45;4.57;;;0.70;;
37787;SDS011;23627;53.302;-6.362;2023-03-23T09:00:22;4.03;;;0.98;;
37787;SDS011;23627;53.302;-6.362;2023-03-23T09:09:04;4.82;;;0.93;;
37787;SDS011;23627;53.302;-6.362;2023-03-23T09:11:43;3.97;;;0.70;;
37787;SDS011;23627;53.302;-6.362;2023-03-23T14:21:38;4.70;;;1.00;;
37787;SDS011;23627;53.302;-6.362;2023-03-23T14:32:35;4.63;;;0.90;;
37787;SDS011;23627;53.302;-6.362;2023-03-23T14:35:04;5.32;;;0.90;;
37787;SDS011;23627;53.302;-6.362;2023-03-23T14:37:38;4.03;;;0.80;;
37787;SDS011;23627;53.302;-6.362;2023-03-23T14:42:39;5.22;;;1.10;;
37787;SDS011;23627;53.302;-6.362;2023-03-23T14:45:07;5.95;;;1.13;;
37787;SDS011;23627;53.302;-6.362;2023-03-23T14:47:42;5.10;;;1.20;;
37787;SDS011;23627;53.302;-6.362;2023-03-23T14:50:22;4.88;;;0.93;;
37787;SDS011;23627;53.302;-6.362;2023-03-23T14:52:49;5.63;;;1.10;;
37787;SDS011;23627;53.302;-6.362;2023-03-23T14:55:24;6.45;;;1.30;;
37787;SDS011;23627;53.302;-6.362;2023-03-23T14:57:56;6.32;;;1.45;;
37787;SDS011;23627;53.302;-6.362;2023-03-23T15:00:38;7.35;;;1.30;;
37787;SDS011;23627;53.302;-6.362;2023-03-23T15:03:17;5.93;;;1.15;;
37787;SDS011;23627;53.302;-6.362;2023-03-23T15:05:48;5.95;;;1.20;;
37787;SDS011;23627;53.302;-6.362;2023-03-23T15:08:33;9.15;;;1.83;;
37787;SDS011;23627;53.302;-6.362;2023-03-23T15:13:53;7.20;;;1.30;;
37787;SDS011;23627;53.302;-6.362;2023-03-23T15:16:30;7.57;;;1.40;;
37787;SDS011;23627;53.302;-6.362;2023-03-23T15:19:17;7.65;;;1.35;;
37787;SDS011;23627;53.302;-6.362;2023-03-23T15:22:24;5.95;;;1.75;;
37787;SDS011;23627;53.302;-6.362;2023-03-23T15:24:53;5.65;;;1.33;;
37787;SDS011;23627;53.302;-6.362;2023-03-23T15:27:29;5.20;;;1.10;;
37787;SDS011;23627;53.302;-6.362;2023-03-23T15:30:31;7.03;;;1.42;;
37787;SDS011;23627;53.302;-6.362;2023-03-23T15:33:13;6.28;;;1.10;;
37787;SDS011;23627;53.302;-6.362;2023-03-23T15:40:53;6.00;;;1.30;;
37787;SDS011;23627;53.302;-6.362;2023-03-23T15:43:27;4.95;;;1.05;;
37787;SDS011;23627;53.302;-6.362;2023-03-23T15:46:19;5.47;;;0.98;;
37787;SDS011;23627;53.302;-6.362;2023-03-23T16:09:38;6.20;;;1.40;;
37787;SDS011;23627;53.302;-6.362;2023-03-23T16:12:12;4.63;;;1.58;;
37787;SDS011;23627;53.302;-6.362;2023-03-23T16:14:39;4.68;;;1.25;;
37787;SDS011;23627;53.302;-6.362;2023-03-23T16:17:05;6.63;;;1.50;;
37787;SDS011;23627;53.302;-6.362;2023-03-23T16:19:35;4.55;;;1.27;;
37787;SDS011;23627;53.302;-6.362;2023-03-23T16:22:01;9.07;;;1.67;;
37787;SDS011;23627;53.302;-6.362;2023-03-23T16:24:26;6.50;;;1.60;;
37787;SDS011;23627;53.302;-6.362;2023-03-23T16:26:55;8.95;;;1.77;;
37787;SDS011;23627;53.302;-6.362;2023-03-23T16:29:21;8.15;;;1.52;;
37787;SDS011;23627;53.302;-6.362;2023-03-23T16:31:47;6.43;;;1.50;;
37787;SDS011;23627;53.302;-6.362;2023-03-23T16:34:15;4.72;;;1.42;;
37787;SDS011;23627;53.302;-6.362;2023-03-23T16:36:41;7.63;;;1.50;;
37787;SDS011;23627;53.302;-6.362;2023-03-23T16:39:11;8.25;;;1.50;;
37787;SDS011;23627;53.302;-6.362;2023-03-23T16:41:55;8.48;;;1.13;;
37787;SDS011;23627;53.302;-6.362;2023-03-23T16:44:21;6.10;;;1.42;;
37787;SDS011;23627;53.302;-6.362;2023-03-23T16:46:46;6.70;;;1.73;;
37787;SDS011;23627;53.302;-6.362;2023-03-23T16:49:12;8.45;;;1.65;;
37787;SDS011;23627;53.302;-6.362;2023-03-23T16:51:38;7.70;;;1.73;;
37787;SDS011;23627;53.302;-6.362;2023-03-23T16:54:05;7.22;;;1.30;;
37787;SDS011;23627;53.302;-6.362;2023-03-23T16:56:31;8.38;;;1.42;;
37787;SDS011;23627;53.302;-6.362;2023-03-23T16:58:57;8.63;;;1.38;;
37787;SDS011;23627;53.302;-6.362;2023-03-23T17:01:23;7.40;;;1.48;;
37787;SDS011;23627;53.302;-6.362;2023-03-23T17:03:49;9.52;;;1.77;;
37787;SDS011;23627;53.302;-6.362;2023-03-23T17:06:14;8.73;;;1.50;;
37787;SDS011;23627;53.302;-6.362;2023-03-23T17:08:40;9.85;;;2.50;;
37787;SDS011;23627;53.302;-6.362;2023-03-23T17:11:06;8.13;;;1.60;;
37787;SDS011;23627;53.302;-6.362;2023-03-23T17:13:32;9.00;;;1.85;;
37787;SDS011;23627;53.302;-6.362;2023-03-23T17:15:58;9.10;;;1.92;;
37787;SDS011;23627;53.302;-6.362;2023-03-23T17:18:24;6.10;;;2.13;;
37787;SDS011;23627;53.302;-6.362;2023-03-23T17:20:51;5.13;;;1.60;;
37787;SDS011;23627;53.302;-6.362;2023-03-23T17:23:18;5.10;;;1.30;;
37787;SDS011;23627;53.302;-6.362;2023-03-23T17:25:45;5.78;;;1.70;;
37787;SDS011;23627;53.302;-6.362;2023-03-23T17:28:11;7.10;;;2.20;;
37787;SDS011;23627;53.302;-6.362;2023-03-23T17:30:50;7.15;;;1.90;;
37787;SDS011;23627;53.302;-6.362;2023-03-23T17:33:17;6.68;;;1.77;;
37787;SDS011;23627;53.302;-6.362;2023-03-23T17:35:44;7.70;;;2.53;;
37787;SDS011;23627;53.302;-6.362;2023-03-23T17:38:10;5.30;;;1.83;;
37787;SDS011;23627;53.302;-6.362;2023-03-23T17:40:36;4.28;;;1.50;;
37787;SDS011;23627;53.302;-6.362;2023-03-23T17:43:02;4.85;;;1.90;;
37787;SDS011;23627;53.302;-6.362;2023-03-23T17:45:28;3.80;;;1.88;;
37787;SDS011;23627;53.302;-6.362;2023-03-23T17:47:54;4.93;;;1.85;;
37787;SDS011;23627;53.302;-6.362;2023-03-23T17:50:20;5.30;;;1.80;;
37787;SDS011;23627;53.302;-6.362;2023-03-23T17:52:46;4.63;;;1.48;;
37787;SDS011;23627;53.302;-6.362;2023-03-23T17:55:13;4.82;;;1.50;;
37787;SDS011;23627;53.302;-6.362;2023-03-23T17:57:39;4.70;;;1.40;;
37787;SDS011;23627;53.302;-6.362;2023-03-23T18:00:06;4.10;;;1.25;;
37787;SDS011;23627;53.302;-6.362;2023-03-23T18:02:37;6.13;;;1.20;;
37787;SDS011;23627;53.302;-6.362;2023-03-23T18:05:03;6.25;;;1.35;;
37787;SDS011;23627;53.302;-6.362;2023-03-23T18:07:30;5.03;;;1.20;;
37787;SDS011;23627;53.302;-6.362;2023-03-23T18:09:56;6.30;;;1.17;;
37787;SDS011;23627;53.302;-6.362;2023-03-23T18:12:23;6.85;;;1.40;;
37787;SDS011;23627;53.302;-6.362;2023-03-23T18:14:50;7.82;;;1.25;;
37787;SDS011;23627;53.302;-6.362;2023-03-23T18:17:19;6.05;;;1.40;;
37787;SDS011;23627;53.302;-6.362;2023-03-23T18:19:45;8.40;;;1.48;;
37787;SDS011;23627;53.302;-6.362;2023-03-23T18:22:11;7.68;;;1.50;;
37787;SDS011;23627;53.302;-6.362;2023-03-23T18:24:40;7.65;;;1.33;;
37787;SDS011;23627;53.302;-6.362;2023-03-23T18:27:06;4.88;;;1.40;;
37787;SDS011;23627;53.302;-6.362;2023-03-23T18:29:32;7.38;;;1.77;;
37787;SDS011;23627;53.302;-6.362;2023-03-23T18:32:00;7.57;;;1.60;;
37787;SDS011;23627;53.302;-6.362;2023-03-23T18:34:26;8.00;;;1.40;;
37787;SDS011;23627;53.302;-6.362;2023-03-23T18:36:52;7.18;;;1.38;;
37787;SDS011;23627;53.302;-6.362;2023-03-23T18:39:17;6.05;;;1.20;;
37787;SDS011;23627;53.302;-6.362;2023-03-23T18:41:43;5.43;;;1.50;;
37787;SDS011;23627;53.302;-6.362;2023-03-23T18:44:09;6.45;;;1.67;;
37787;SDS011;23627;53.302;-6.362;2023-03-23T18:46:35;6.95;;;1.13;;
37787;SDS011;23627;53.302;-6.362;2023-03-23T18:49:01;5.57;;;1.40;;
37787;SDS011;23627;53.302;-6.362;2023-03-23T18:51:27;6.18;;;1.15;;
37787;SDS011;23627;53.302;-6.362;2023-03-23T18:53:54;6.53;;;1.60;;
37787;SDS011;23627;53.302;-6.362;2023-03-23T18:56:20;7.57;;;1.30;;
37787;SDS011;23627;53.302;-6.362;2023-03-23T18:58:46;6.47;;;1.30;;
37787;SDS011;23627;53.302;-6.362;2023-03-23T19:01:15;6.55;;;1.23;;
37787;SDS011;23627;53.302;-6.362;2023-03-23T19:03:41;7.22;;;1.48;;
37787;SDS011;23627;53.302;-6.362;2023-03-23T19:06:13;5.80;;;1.42;;
37787;SDS011;23627;53.302;-6.362;2023-03-23T19:08:41;9.52;;;1.52;;
37787;SDS011;23627;53.302;-6.362;2023-03-23T19:11:07;7.53;;;1.20;;
37787;SDS011;23627;53.302;-6.362;2023-03-23T19:13:33;9.35;;;1.40;;
37787;SDS011;23627;53.302;-6.362;2023-03-23T19:16:00;7.35;;;1.42;;
37787;SDS011;23627;53.302;-6.362;2023-03-23T19:18:26;7.43;;;1.65;;
37787;SDS011;23627;53.302;-6.362;2023-03-23T19:20:52;5.13;;;1.40;;
37787;SDS011;23627;53.302;-6.362;2023-03-23T19:23:18;4.88;;;1.40;;
37787;SDS011;23627;53.302;-6.362;2023-03-23T19:25:45;6.95;;;1.25;;
37787;SDS011;23627;53.302;-6.362;2023-03-23T19:28:11;4.35;;;1.60;;
37787;SDS011;23627;53.302;-6.362;2023-03-23T19:30:41;3.42;;;1.17;;
37787;SDS011;23627;53.302;-6.362;2023-03-23T19:33:09;6.72;;;1.10;;
37787;SDS011;23627;53.302;-6.362;2023-03-23T19:35:35;4.60;;;1.40;;
37787;SDS011;23627;53.302;-6.362;2023-03-23T19:38:01;9.57;;;2.13;;
37787;SDS011;23627;53.302;-6.362;2023-03-23T19:40:27;7.20;;;1.92;;
37787;SDS011;23627;53.302;-6.362;2023-03-23T19:42:53;7.28;;;1.52;;
37787;SDS011;23627;53.302;-6.362;2023-03-23T19:45:19;8.60;;;1.88;;
37787;SDS011;23627;53.302;-6.362;2023-03-23T19:47:45;9.50;;;1.63;;
37787;SDS011;23627;53.302;-6.362;2023-03-23T19:50:11;8.07;;;1.52;;
37787;SDS011;23627;53.302;-6.362;2023-03-23T19:52:36;6.70;;;1.63;;
37787;SDS011;23627;53.302;-6.362;2023-03-23T19:55:02;6.35;;;1.38;;
37787;SDS011;23627;53.302;-6.362;2023-03-23T19:57:28;8.18;;;1.15;;
37787;SDS011;23627;53.302;-6.362;2023-03-23T19:59:54;6.55;;;1.45;;
37787;SDS011;23627;53.302;-6.362;2023-03-23T20:02:20;5.40;;;1.20;;
37787;SDS011;23627;53.302;-6.362;2023-03-23T20:04:45;4.05;;;1.05;;
37787;SDS011;23627;53.302;-6.362;2023-03-23T20:07:11;3.75;;;1.15;;
37787;SDS011;23627;53.302;-6.362;2023-03-23T20:09:37;5.65;;;0.93;;
37787;SDS011;23627;53.302;-6.362;2023-03-23T20:12:03;2.13;;;0.60;;
37787;SDS011;23627;53.302;-6.362;2023-03-23T20:14:29;3.47;;;0.68;;
37787;SDS011;23627;53.302;-6.362;2023-03-23T20:16:55;4.88;;;0.85;;
37787;SDS011;23627;53.302;-6.362;2023-03-23T20:19:21;3.58;;;0.80;;
37787;SDS011;23627;53.302;-6.362;2023-03-23T20:21:46;3.40;;;0.90;;
37787;SDS011;23627;53.302;-6.362;2023-03-23T20:24:12;3.40;;;0.90;;
37787;SDS011;23627;53.302;-6.362;2023-03-23T20:26:39;3.58;;;0.70;;
37787;SDS011;23627;53.302;-6.362;2023-03-23T20:29:07;4.22;;;0.80;;
37787;SDS011;23627;53.302;-6.362;2023-03-23T20:31:34;1.92;;;0.80;;
37787;SDS011;23627;53.302;-6.362;2023-03-23T20:34:04;2.97;;;0.68;;
37787;SDS011;23627;53.302;-6.362;2023-03-23T20:36:34;2.17;;;0.52;;
37787;SDS011;23627;53.302;-6.362;2023-03-23T20:39:05;2.75;;;0.68;;
37787;SDS011;23627;53.302;-6.362;2023-03-23T20:41:34;3.13;;;0.80;;
37787;SDS011;23627;53.302;-6.362;2023-03-23T20:44:03;3.03;;;0.80;;
37787;SDS011;23627;53.302;-6.362;2023-03-23T20:46:31;2.65;;;0.80;;
37787;SDS011;23627;53.302;-6.362;2023-03-23T20:48:57;2.83;;;0.80;;
37787;SDS011;23627;53.302;-6.362;2023-03-23T20:51:22;2.45;;;0.80;;
37787;SDS011;23627;53.302;-6.362;2023-03-23T20:53:54;3.67;;;0.70;;
37787;SDS011;23627;53.302;-6.362;2023-03-23T20:56:19;1.80;;;0.70;;
37787;SDS011;23627;53.302;-6.362;2023-03-23T20:58:46;4.43;;;0.88;;
37787;SDS011;23627;53.302;-6.362;2023-03-23T21:01:15;3.10;;;0.68;;
37787;SDS011;23627;53.302;-6.362;2023-03-23T21:03:41;4.20;;;0.70;;
37787;SDS011;23627;53.302;-6.362;2023-03-23T21:06:07;3.00;;;0.68;;
37787;SDS011;23627;53.302;-6.362;2023-03-23T21:08:35;2.13;;;0.70;;
37787;SDS011;23627;53.302;-6.362;2023-03-23T21:11:03;2.63;;;0.70;;
37787;SDS011;23627;53.302;-6.362;2023-03-23T21:13:30;2.22;;;0.60;;
37787;SDS011;23627;53.302;-6.362;2023-03-23T21:15:56;2.35;;;0.60;;
37787;SDS011;23627;53.302;-6.362;2023-03-23T21:18:24;2.42;;;0.68;;
37787;SDS011;23627;53.302;-6.362;2023-03-23T21:20:50;1.85;;;0.50;;
37787;SDS011;23627;53.302;-6.362;2023-03-23T21:23:16;2.05;;;0.70;;
37787;SDS011;23627;53.302;-6.362;2023-03-23T21:25:43;2.25;;;0.80;;
37787;SDS011;23627;53.302;-6.362;2023-03-23T21:28:10;2.35;;;0.70;;
37787;SDS011;23627;53.302;-6.362;2023-03-23T21:30:36;2.78;;;0.70;;
37787;SDS011;23627;53.302;-6.362;2023-03-23T21:33:06;4.13;;;1.00;;
37787;SDS011;23627;53.302;-6.362;2023-03-23T21:35:32;1.92;;;0.70;;
37787;SDS011;23627;53.302;-6.362;2023-03-23T21:37:58;2.45;;;0.82;;
37787;SDS011;23627;53.302;-6.362;2023-03-23T21:40:23;2.10;;;0.70;;
37787;SDS011;23627;53.302;-6.362;2023-03-23T21:42:49;1.40;;;0.60;;
37787;SDS011;23627;53.302;-6.362;2023-03-23T21:45:17;2.20;;;0.60;;
37787;SDS011;23627;53.302;-6.362;2023-03-23T21:47:47;1.90;;;0.70;;
37787;SDS011;23627;53.302;-6.362;2023-03-23T21:50:14;3.50;;;0.68;;
37787;SDS011;23627;53.302;-6.362;2023-03-23T21:52:40;2.35;;;0.57;;
37787;SDS011;23627;53.302;-6.362;2023-03-23T21:55:08;3.78;;;0.55;;
37787;SDS011;23627;53.302;-6.362;2023-03-23T21:57:34;3.13;;;0.57;;
37787;SDS011;23627;53.302;-6.362;2023-03-23T22:00:02;2.38;;;0.60;;
37787;SDS011;23627;53.302;-6.362;2023-03-23T22:02:31;2.22;;;0.73;;
37787;SDS011;23627;53.302;-6.362;2023-03-23T22:04:57;2.28;;;0.60;;
37787;SDS011;23627;53.302;-6.362;2023-03-23T22:07:23;2.33;;;0.60;;
37787;SDS011;23627;53.302;-6.362;2023-03-23T22:09:49;3.13;;;0.68;;
37787;SDS011;23627;53.302;-6.362;2023-03-23T22:12:16;2.92;;;0.60;;
37787;SDS011;23627;53.302;-6.362;2023-03-23T22:14:42;1.88;;;0.43;;
37787;SDS011;23627;53.302;-6.362;2023-03-23T22:17:08;1.98;;;0.60;;
37787;SDS011;23627;53.302;-6.362;2023-03-23T22:19:35;2.28;;;0.60;;
37787;SDS011;23627;53.302;-6.362;2023-03-23T22:22:01;3.63;;;0.70;;
37787;SDS011;23627;53.302;-6.362;2023-03-23T22:24:28;2.38;;;0.60;;
37787;SDS011;23627;53.302;-6.362;2023-03-23T22:26:54;2.70;;;0.52;;
37787;SDS011;23627;53.302;-6.362;2023-03-23T22:29:20;3.45;;;0.60;;
37787;SDS011;23627;53.302;-6.362;2023-03-23T22:31:47;3.67;;;0.63;;
37787;SDS011;23627;53.302;-6.362;2023-03-23T22:34:23;2.97;;;0.57;;
37787;SDS011;23627;53.302;-6.362;2023-03-23T22:37:09;4.22;;;0.77;;
37787;SDS011;23627;53.302;-6.362;2023-03-23T22:39:46;5.20;;;1.00;;
37787;SDS011;23627;53.302;-6.362;2023-03-23T22:42:12;2.78;;;0.75;;
37787;SDS011;23627;53.302;-6.362;2023-03-23T22:44:38;3.60;;;0.60;;
37787;SDS011;23627;53.302;-6.362;2023-03-23T22:47:04;2.88;;;0.68;;
37787;SDS011;23627;53.302;-6.362;2023-03-23T22:49:29;4.07;;;0.80;;
37787;SDS011;23627;53.302;-6.362;2023-03-23T22:51:56;3.38;;;0.70;;
37787;SDS011;23627;53.302;-6.362;2023-03-23T22:54:25;4.07;;;0.70;;
37787;SDS011;23627;53.302;-6.362;2023-03-23T22:56:51;4.20;;;0.82;;
37787;SDS011;23627;53.302;-6.362;2023-03-23T22:59:16;5.72;;;0.82;;
37787;SDS011;23627;53.302;-6.362;2023-03-23T23:01:44;3.65;;;0.80;;
37787;SDS011;23627;53.302;-6.362;2023-03-23T23:04:13;2.67;;;0.75;;
37787;SDS011;23627;53.302;-6.362;2023-03-23T23:06:39;4.50;;;0.80;;
37787;SDS011;23627;53.302;-6.362;2023-03-23T23:09:05;3.28;;;0.90;;